sensor_id;sensor_type;location;lat;lon;timestamp;pressure;altitude;pressure_sealevel;temperature;humidity
42633;BME280;28261;53.304;-6.284;2024-03-23T00:52:20;101093.66;;;4.11;100.00
42633;BME280;28261;53.304;-6.284;2024-03-23T00:54:21;101106.81;;;4.09;100.00
42633;BME280;28261;53.304;-6.284;2024-03-23T00:56:24;101096.44;;;4.06;100.00
42633;BME280;28261;53.304;-6.284;2024-03-23T00:58:25;101105.16;;;4.06;100.00
42633;BME280;28261;53.304;-6.284;2024-03-23T01:00:28;101096.44;;;4.06;100.00
42633;BME280;28261;53.304;-6.284;2024-03-23T01:02:30;101105.22;;;4.05;100.00
42633;BME280;28261;53.304;-6.284;2024-03-23T01:04:32;101089.53;;;4.03;100.00
42633;BME280;28261;53.304;-6.284;2024-03-23T01:06:34;101086.03;;;4.03;100.00
42633;BME280;28261;53.304;-6.284;2024-03-23T01:08:38;101079.09;;;4.02;100.00
42633;BME280;28261;53.304;-6.284;2024-03-23T01:10:40;101080.78;;;4.03;100.00
42633;BME280;28261;53.304;-6.284;2024-03-23T01:12:42;101092.16;;;4.03;100.00
42633;BME280;28261;53.304;-6.284;2024-03-23T01:14:44;101085.25;;;4.01;100.00
42633;BME280;28261;53.304;-6.284;2024-03-23T01:16:46;101086.13;;;4.00;100.00
42633;BME280;28261;53.304;-6.284;2024-03-23T01:18:48;101081.75;;;4.00;100.00
42633;BME280;28261;53.304;-6.284;2024-03-23T01:20:50;101084.38;;;4.00;100.00
42633;BME280;28261;53.304;-6.284;2024-03-23T01:22:53;101079.13;;;4.00;100.00
42633;BME280;28261;53.304;-6.284;2024-03-23T01:24:56;101078.22;;;4.01;100.00
42633;BME280;28261;53.304;-6.284;2024-03-23T01:26:58;101075.59;;;4.01;100.00
42633;BME280;28261;53.304;-6.284;2024-03-23T01:29:00;101073.88;;;4.00;100.00
42633;BME280;28261;53.304;-6.284;2024-03-23T01:31:03;101065.09;;;4.01;100.00
42633;BME280;28261;53.304;-6.284;2024-03-23T01:33:04;101083.47;;;4.01;100.00
42633;BME280;28261;53.304;-6.284;2024-03-23T01:35:08;101076.47;;;4.02;100.00
42633;BME280;28261;53.304;-6.284;2024-03-23T01:37:09;101078.16;;;4.03;100.00
42633;BME280;28261;53.304;-6.284;2024-03-23T01:39:11;101081.66;;;4.03;100.00
42633;BME280;28261;53.304;-6.284;2024-03-23T01:41:16;101064.19;;;4.02;100.00
42633;BME280;28261;53.304;-6.284;2024-03-23T01:43:19;101077.31;;;4.02;100.00
42633;BME280;28261;53.304;-6.284;2024-03-23T01:45:21;101059.78;;;4.03;100.00
42633;BME280;28261;53.304;-6.284;2024-03-23T01:47:23;101065.91;;;4.03;100.00
42633;BME280;28261;53.304;-6.284;2024-03-23T01:49:26;101055.44;;;4.03;100.00
42633;BME280;28261;53.304;-6.284;2024-03-23T01:51:28;101055.47;;;4.02;100.00
42633;BME280;28261;53.304;-6.284;2024-03-23T01:53:31;101049.31;;;4.03;100.00
42633;BME280;28261;53.304;-6.284;2024-03-23T01:55:33;101050.19;;;4.03;100.00
42633;BME280;28261;53.304;-6.284;2024-03-23T01:57:41;101047.50;;;4.05;100.00
42633;BME280;28261;53.304;-6.284;2024-03-23T01:59:43;101055.44;;;4.03;100.00
42633;BME280;28261;53.304;-6.284;2024-03-23T02:01:46;101048.34;;;4.05;100.00
42633;BME280;28261;53.304;-6.284;2024-03-23T02:03:48;101043.09;;;4.05;100.00
42633;BME280;28261;53.304;-6.284;2024-03-23T02:05:52;101046.59;;;4.06;100.00
42633;BME280;28261;53.304;-6.284;2024-03-23T02:07:54;101050.06;;;4.06;100.00
42633;BME280;28261;53.304;-6.284;2024-03-23T02:09:57;101058.84;;;4.05;100.00
42633;BME280;28261;53.304;-6.284;2024-03-23T02:11:58;101052.75;;;4.05;100.00
42633;BME280;28261;53.304;-6.284;2024-03-23T02:14:03;101060.66;;;4.03;100.00
42633;BME280;28261;53.304;-6.284;2024-03-23T02:16:05;101060.56;;;4.06;100.00
42633;BME280;28261;53.304;-6.284;2024-03-23T02:18:08;101061.41;;;4.07;100.00
42633;BME280;28261;53.304;-6.284;2024-03-23T02:20:11;101061.31;;;4.10;100.00
42633;BME280;28261;53.304;-6.284;2024-03-23T02:22:14;101063.88;;;4.12;100.00
42633;BME280;28261;53.304;-6.284;2024-03-23T02:24:18;101063.88;;;4.12;100.00
42633;BME280;28261;53.304;-6.284;2024-03-23T02:26:20;101056.00;;;4.12;100.00
42633;BME280;28261;53.304;-6.284;2024-03-23T02:28:22;101045.56;;;4.10;100.00
42633;BME280;28261;53.304;-6.284;2024-03-23T02:30:25;101053.38;;;4.12;100.00
42633;BME280;28261;53.304;-6.284;2024-03-23T02:32:27;101048.16;;;4.12;100.00
42633;BME280;28261;53.304;-6.284;2024-03-23T02:34:29;101048.09;;;4.13;100.00
42633;BME280;28261;53.304;-6.284;2024-03-23T02:36:31;101050.72;;;4.13;100.00
42633;BME280;28261;53.304;-6.284;2024-03-23T02:38:33;101038.44;;;4.14;100.00
42633;BME280;28261;53.304;-6.284;2024-03-23T02:40:37;101028.00;;;4.12;100.00
42633;BME280;28261;53.304;-6.284;2024-03-23T02:42:39;101034.09;;;4.13;100.00
42633;BME280;28261;53.304;-6.284;2024-03-23T02:44:41;101038.44;;;4.14;100.00
42633;BME280;28261;53.304;-6.284;2024-03-23T02:46:43;101028.00;;;4.12;100.00
42633;BME280;28261;53.304;-6.284;2024-03-23T02:48:45;101025.31;;;4.14;100.00
42633;BME280;28261;53.304;-6.284;2024-03-23T02:50:50;101020.97;;;4.13;100.00
42633;BME280;28261;53.304;-6.284;2024-03-23T02:52:52;101015.69;;;4.14;100.00
42633;BME280;28261;53.304;-6.284;2024-03-23T02:54:54;101025.19;;;4.17;100.00
42633;BME280;28261;53.304;-6.284;2024-03-23T02:56:57;101025.19;;;4.17;100.00
42633;BME280;28261;53.304;-6.284;2024-03-23T02:59:00;101017.25;;;4.20;100.00
42633;BME280;28261;53.304;-6.284;2024-03-23T03:01:02;101005.81;;;4.21;100.00
42633;BME280;28261;53.304;-6.284;2024-03-23T03:03:04;101016.28;;;4.22;100.00
42633;BME280;28261;53.304;-6.284;2024-03-23T03:05:06;101009.13;;;4.26;100.00
42633;BME280;28261;53.304;-6.284;2024-03-23T03:07:10;101005.53;;;4.29;100.00
42633;BME280;28261;53.304;-6.284;2024-03-23T03:09:11;101002.81;;;4.32;100.00
42633;BME280;28261;53.304;-6.284;2024-03-23T03:11:14;101004.47;;;4.34;100.00
42633;BME280;28261;53.304;-6.284;2024-03-23T03:13:17;100999.06;;;4.39;100.00
42633;BME280;28261;53.304;-6.284;2024-03-23T03:15:19;100994.66;;;4.39;100.00
42633;BME280;28261;53.304;-6.284;2024-03-23T03:17:21;100990.16;;;4.43;100.00
42633;BME280;28261;53.304;-6.284;2024-03-23T03:19:24;100985.75;;;4.44;100.00
42633;BME280;28261;53.304;-6.284;2024-03-23T03:21:26;100982.28;;;4.43;100.00
42633;BME280;28261;53.304;-6.284;2024-03-23T03:23:29;100987.59;;;4.42;100.00
42633;BME280;28261;53.304;-6.284;2024-03-23T03:25:30;100986.00;;;4.37;100.00
42633;BME280;28261;53.304;-6.284;2024-03-23T03:27:33;100992.16;;;4.36;100.00
42633;BME280;28261;53.304;-6.284;2024-03-23T03:29:36;100988.66;;;4.36;100.00
42633;BME280;28261;53.304;-6.284;2024-03-23T03:31:39;100997.41;;;4.36;100.00
42633;BME280;28261;53.304;-6.284;2024-03-23T03:33:40;100989.53;;;4.36;100.00
42633;BME280;28261;53.304;-6.284;2024-03-23T03:35:43;100986.00;;;4.37;100.00
42633;BME280;28261;53.304;-6.284;2024-03-23T03:37:45;100992.09;;;4.38;100.00
42633;BME280;28261;53.304;-6.284;2024-03-23T03:39:47;100980.78;;;4.36;100.00
42633;BME280;28261;53.304;-6.284;2024-03-23T03:41:49;100992.16;;;4.36;100.00
42633;BME280;28261;53.304;-6.284;2024-03-23T03:43:51;100977.31;;;4.35;100.00
42633;BME280;28261;53.304;-6.284;2024-03-23T03:45:55;100970.28;;;4.36;100.00
42633;BME280;28261;53.304;-6.284;2024-03-23T03:47:58;100966.81;;;4.35;100.00
42633;BME280;28261;53.304;-6.284;2024-03-23T03:50:00;100966.75;;;4.37;100.00
42633;BME280;28261;53.304;-6.284;2024-03-23T03:52:03;100966.75;;;4.37;100.00
42633;BME280;28261;53.304;-6.284;2024-03-23T03:54:04;100954.50;;;4.37;100.00
42633;BME280;28261;53.304;-6.284;2024-03-23T03:56:07;100944.78;;;4.39;100.00
42633;BME280;28261;53.304;-6.284;2024-03-23T03:58:08;100944.72;;;4.41;100.00
42633;BME280;28261;53.304;-6.284;2024-03-23T04:00:12;100944.78;;;4.39;100.00
42633;BME280;28261;53.304;-6.284;2024-03-23T04:02:15;100940.44;;;4.38;100.00
42633;BME280;28261;53.304;-6.284;2024-03-23T04:04:18;100942.28;;;4.36;100.00
42633;BME280;28261;53.304;-6.284;2024-03-23T04:06:19;100934.47;;;4.35;100.00
42633;BME280;28261;53.304;-6.284;2024-03-23T04:08:22;100931.91;;;4.33;100.00
42633;BME280;28261;53.304;-6.284;2024-03-23T04:10:23;100934.63;;;4.30;100.00
42633;BME280;28261;53.304;-6.284;2024-03-23T04:12:27;100930.31;;;4.29;100.00
42633;BME280;28261;53.304;-6.284;2024-03-23T04:14:29;100925.97;;;4.28;100.00
42633;BME280;28261;53.304;-6.284;2024-03-23T04:16:34;100917.28;;;4.26;100.00
42633;BME280;28261;53.304;-6.284;2024-03-23T04:18:37;100913.75;;;4.27;100.00
42633;BME280;28261;53.304;-6.284;2024-03-23T04:20:40;100918.94;;;4.29;100.00
42633;BME280;28261;53.304;-6.284;2024-03-23T04:22:41;100925.97;;;4.28;100.00
42633;BME280;28261;53.304;-6.284;2024-03-23T04:24:44;100907.59;;;4.28;100.00
42633;BME280;28261;53.304;-6.284;2024-03-23T04:26:46;100905.75;;;4.30;100.00
42633;BME280;28261;53.304;-6.284;2024-03-23T04:28:48;100916.25;;;4.30;100.00
42633;BME280;28261;53.304;-6.284;2024-03-23T04:30:50;100905.75;;;4.30;100.00
42633;BME280;28261;53.304;-6.284;2024-03-23T04:32:52;100911.88;;;4.31;100.00
42633;BME280;28261;53.304;-6.284;2024-03-23T04:34:56;100892.63;;;4.30;100.00
42633;BME280;28261;53.304;-6.284;2024-03-23T04:36:58;100903.19;;;4.29;100.00
42633;BME280;28261;53.304;-6.284;2024-03-23T04:39:00;100898.00;;;4.27;100.00
42633;BME280;28261;53.304;-6.284;2024-03-23T04:41:03;100891.94;;;4.25;100.00
42633;BME280;28261;53.304;-6.284;2024-03-23T04:43:04;100908.56;;;4.26;100.00
42633;BME280;28261;53.304;-6.284;2024-03-23T04:45:08;100897.19;;;4.25;100.00
42633;BME280;28261;53.304;-6.284;2024-03-23T04:47:11;100903.31;;;4.26;100.00
42633;BME280;28261;53.304;-6.284;2024-03-23T04:49:14;100895.38;;;4.27;100.00
42633;BME280;28261;53.304;-6.284;2024-03-23T04:51:22;100882.19;;;4.29;100.00
42633;BME280;28261;53.304;-6.284;2024-03-23T04:53:24;100880.44;;;4.29;100.00
42633;BME280;28261;53.304;-6.284;2024-03-23T04:55:30;100871.69;;;4.29;100.00
42633;BME280;28261;53.304;-6.284;2024-03-23T04:57:32;100877.00;;;4.27;100.00
42633;BME280;28261;53.304;-6.284;2024-03-23T04:59:36;100868.31;;;4.25;100.00
42633;BME280;28261;53.304;-6.284;2024-03-23T05:01:37;100867.47;;;4.24;100.00
42633;BME280;28261;53.304;-6.284;2024-03-23T05:03:43;100861.44;;;4.22;100.00
42633;BME280;28261;53.304;-6.284;2024-03-23T05:05:45;100860.56;;;4.22;100.00
42633;BME280;28261;53.304;-6.284;2024-03-23T05:07:49;100844.91;;;4.20;100.00
42633;BME280;28261;53.304;-6.284;2024-03-23T05:09:50;100855.47;;;4.19;100.00
42633;BME280;28261;53.304;-6.284;2024-03-23T05:11:53;100844.97;;;4.19;100.00
42633;BME280;28261;53.304;-6.284;2024-03-23T05:13:55;100841.53;;;4.17;100.00
42633;BME280;28261;53.304;-6.284;2024-03-23T05:15:57;100849.41;;;4.17;100.00
42633;BME280;28261;53.304;-6.284;2024-03-23T05:18:00;100845.03;;;4.17;100.00
42633;BME280;28261;53.304;-6.284;2024-03-23T05:20:03;100842.41;;;4.17;100.00
42633;BME280;28261;53.304;-6.284;2024-03-23T05:22:04;100844.97;;;4.19;100.00
42633;BME280;28261;53.304;-6.284;2024-03-23T05:24:08;100829.22;;;4.19;100.00
42633;BME280;28261;53.304;-6.284;2024-03-23T05:26:10;100830.06;;;4.19;100.00
42633;BME280;28261;53.304;-6.284;2024-03-23T05:28:12;100830.06;;;4.19;100.00
42633;BME280;28261;53.304;-6.284;2024-03-23T05:30:14;100836.19;;;4.20;100.00
42633;BME280;28261;53.304;-6.284;2024-03-23T05:32:17;100845.81;;;4.19;100.00
42633;BME280;28261;53.304;-6.284;2024-03-23T05:34:18;100846.63;;;4.21;100.00
42633;BME280;28261;53.304;-6.284;2024-03-23T05:36:21;100830.81;;;4.23;100.00
42633;BME280;28261;53.304;-6.284;2024-03-23T05:38:23;100837.78;;;4.24;100.00
42633;BME280;28261;53.304;-6.284;2024-03-23T05:40:27;100842.91;;;4.27;100.00
42633;BME280;28261;53.304;-6.284;2024-03-23T05:42:29;100824.47;;;4.29;100.00
42633;BME280;28261;53.304;-6.284;2024-03-23T05:44:31;100827.03;;;4.30;100.00
42633;BME280;28261;53.304;-6.284;2024-03-23T05:46:33;100833.16;;;4.31;100.00
42633;BME280;28261;53.304;-6.284;2024-03-23T05:48:35;100831.38;;;4.31;100.00
42633;BME280;28261;53.304;-6.284;2024-03-23T05:50:37;100825.22;;;4.32;100.00
42633;BME280;28261;53.304;-6.284;2024-03-23T05:52:40;100823.34;;;4.34;100.00
42633;BME280;28261;53.304;-6.284;2024-03-23T05:54:44;100837.28;;;4.36;100.00
42633;BME280;28261;53.304;-6.284;2024-03-23T05:56:48;100838.94;;;4.39;100.00
42633;BME280;28261;53.304;-6.284;2024-03-23T05:58:49;100823.13;;;4.40;100.00
42633;BME280;28261;53.304;-6.284;2024-03-23T06:00:57;100831.84;;;4.41;100.00
42633;BME280;28261;53.304;-6.284;2024-03-23T06:02:58;100844.06;;;4.42;100.00
42633;BME280;28261;53.304;-6.284;2024-03-23T06:05:01;100835.16;;;4.46;100.00
42633;BME280;28261;53.304;-6.284;2024-03-23T06:07:03;100832.53;;;4.46;100.00
42633;BME280;28261;53.304;-6.284;2024-03-23T06:09:07;100835.09;;;4.48;100.00
42633;BME280;28261;53.304;-6.284;2024-03-23T06:11:08;100829.00;;;4.47;100.00
42633;BME280;28261;53.304;-6.284;2024-03-23T06:13:12;100835.22;;;4.45;100.00
42633;BME280;28261;53.304;-6.284;2024-03-23T06:15:14;100831.72;;;4.44;100.00
42633;BME280;28261;53.304;-6.284;2024-03-23T06:17:17;100825.63;;;4.44;100.00
42633;BME280;28261;53.304;-6.284;2024-03-23T06:19:18;100828.25;;;4.44;100.00
42633;BME280;28261;53.304;-6.284;2024-03-23T06:21:21;100826.44;;;4.46;100.00
42633;BME280;28261;53.304;-6.284;2024-03-23T06:23:25;100829.97;;;4.45;100.00
42633;BME280;28261;53.304;-6.284;2024-03-23T06:25:27;100825.56;;;4.45;100.00
42633;BME280;28261;53.304;-6.284;2024-03-23T06:27:29;100826.44;;;4.46;100.00
42633;BME280;28261;53.304;-6.284;2024-03-23T06:29:34;100822.03;;;4.46;100.00
42633;BME280;28261;53.304;-6.284;2024-03-23T06:31:37;100818.50;;;4.47;100.00
42633;BME280;28261;53.304;-6.284;2024-03-23T06:33:40;100811.41;;;4.49;100.00
42633;BME280;28261;53.304;-6.284;2024-03-23T06:35:43;100811.41;;;4.49;100.00
42633;BME280;28261;53.304;-6.284;2024-03-23T06:37:53;100808.72;;;4.51;100.00
42633;BME280;28261;53.304;-6.284;2024-03-23T06:39:54;100812.22;;;4.51;100.00
42633;BME280;28261;53.304;-6.284;2024-03-23T06:41:57;100807.03;;;4.50;100.00
42633;BME280;28261;53.304;-6.284;2024-03-23T06:43:58;100817.53;;;4.50;100.00
42633;BME280;28261;53.304;-6.284;2024-03-23T06:46:03;100816.72;;;4.48;100.00
42633;BME280;28261;53.304;-6.284;2024-03-23T06:48:06;100813.31;;;4.46;100.00
42633;BME280;28261;53.304;-6.284;2024-03-23T06:50:09;100814.28;;;4.43;100.00
42633;BME280;28261;53.304;-6.284;2024-03-23T06:52:11;100817.88;;;4.40;100.00
42633;BME280;28261;53.304;-6.284;2024-03-23T06:54:14;100814.44;;;4.38;100.00
42633;BME280;28261;53.304;-6.284;2024-03-23T06:56:16;100820.50;;;4.40;100.00
42633;BME280;28261;53.304;-6.284;2024-03-23T06:58:19;100807.38;;;4.40;100.00
42633;BME280;28261;53.304;-6.284;2024-03-23T07:00:21;100813.53;;;4.39;100.00
42633;BME280;28261;53.304;-6.284;2024-03-23T07:02:25;100801.31;;;4.38;100.00
42633;BME280;28261;53.304;-6.284;2024-03-23T07:04:26;100822.25;;;4.40;100.00
42633;BME280;28261;53.304;-6.284;2024-03-23T07:06:29;100802.19;;;4.39;100.00
42633;BME280;28261;53.304;-6.284;2024-03-23T07:08:31;100796.88;;;4.40;100.00
42633;BME280;28261;53.304;-6.284;2024-03-23T07:10:34;100788.09;;;4.42;100.00
42633;BME280;28261;53.304;-6.284;2024-03-23T07:12:36;100798.47;;;4.45;100.00
42633;BME280;28261;53.304;-6.284;2024-03-23T07:14:39;100794.94;;;4.46;100.00
42633;BME280;28261;53.304;-6.284;2024-03-23T07:16:40;100796.53;;;4.50;100.00
42633;BME280;28261;53.304;-6.284;2024-03-23T07:18:44;100803.47;;;4.51;100.00
42633;BME280;28261;53.304;-6.284;2024-03-23T07:20:52;100792.88;;;4.52;100.00
42633;BME280;28261;53.304;-6.284;2024-03-23T07:22:55;100798.94;;;4.54;100.00
42633;BME280;28261;53.304;-6.284;2024-03-23T07:24:56;100789.22;;;4.56;100.00
42633;BME280;28261;53.304;-6.284;2024-03-23T07:26:59;100782.94;;;4.61;100.00
42633;BME280;28261;53.304;-6.284;2024-03-23T07:29:00;100781.94;;;4.63;100.00
42633;BME280;28261;53.304;-6.284;2024-03-23T07:31:04;100780.00;;;4.68;100.00
42633;BME280;28261;53.304;-6.284;2024-03-23T07:33:05;100778.88;;;4.74;100.00
42633;BME280;28261;53.304;-6.284;2024-03-23T07:35:09;100781.34;;;4.79;100.00
42633;BME280;28261;53.304;-6.284;2024-03-23T07:37:12;100778.63;;;4.80;100.00
42633;BME280;28261;53.304;-6.284;2024-03-23T07:39:15;100773.44;;;4.79;100.00
42633;BME280;28261;53.304;-6.284;2024-03-23T07:41:18;100782.25;;;4.78;100.00
42633;BME280;28261;53.304;-6.284;2024-03-23T07:43:20;100786.59;;;4.79;100.00
42633;BME280;28261;53.304;-6.284;2024-03-23T07:45:22;100791.84;;;4.79;100.00
42633;BME280;28261;53.304;-6.284;2024-03-23T07:47:25;100789.13;;;4.80;100.00
42633;BME280;28261;53.304;-6.284;2024-03-23T07:49:27;100804.00;;;4.81;100.00
42633;BME280;28261;53.304;-6.284;2024-03-23T07:51:30;100799.50;;;4.83;100.00
42633;BME280;28261;53.304;-6.284;2024-03-23T07:53:33;100802.00;;;4.86;100.00
42633;BME280;28261;53.304;-6.284;2024-03-23T07:55:36;100810.75;;;4.87;100.00
42633;BME280;28261;53.304;-6.284;2024-03-23T07:57:38;100808.19;;;4.85;100.00
42633;BME280;28261;53.304;-6.284;2024-03-23T07:59:41;100809.19;;;4.83;100.00
42633;BME280;28261;53.304;-6.284;2024-03-23T08:01:42;100809.28;;;4.80;100.00
42633;BME280;28261;53.304;-6.284;2024-03-23T08:03:45;100804.28;;;4.73;100.00
42633;BME280;28261;53.304;-6.284;2024-03-23T08:05:47;100811.34;;;4.73;100.00
42633;BME280;28261;53.304;-6.284;2024-03-23T08:07:51;100808.88;;;4.68;100.00
42633;BME280;28261;53.304;-6.284;2024-03-23T08:09:53;100822.00;;;4.68;100.00
42633;BME280;28261;53.304;-6.284;2024-03-23T08:11:56;100813.22;;;4.69;100.00
42633;BME280;28261;53.304;-6.284;2024-03-23T08:13:58;100807.97;;;4.69;100.00
42633;BME280;28261;53.304;-6.284;2024-03-23T08:16:01;100810.38;;;4.74;100.00
42633;BME280;28261;53.304;-6.284;2024-03-23T08:18:04;100824.00;;;4.84;100.00
42633;BME280;28261;53.304;-6.284;2024-03-23T08:20:07;100825.63;;;4.86;100.00
42633;BME280;28261;53.304;-6.284;2024-03-23T08:22:09;100826.38;;;4.90;100.00
42633;BME280;28261;53.304;-6.284;2024-03-23T08:24:13;100824.28;;;4.98;100.00
42633;BME280;28261;53.304;-6.284;2024-03-23T08:26:16;100830.97;;;5.05;100.00
42633;BME280;28261;53.304;-6.284;2024-03-23T08:28:19;100831.06;;;5.04;100.00
42633;BME280;28261;53.304;-6.284;2024-03-23T08:30:21;100825.84;;;5.02;100.00
42633;BME280;28261;53.304;-6.284;2024-03-23T08:32:23;100832.97;;;5.00;100.00
42633;BME280;28261;53.304;-6.284;2024-03-23T08:34:25;100831.13;;;5.02;100.00
42633;BME280;28261;53.304;-6.284;2024-03-23T08:36:28;100834.53;;;5.04;100.00
42633;BME280;28261;53.304;-6.284;2024-03-23T08:38:30;100833.59;;;5.05;100.00
42633;BME280;28261;53.304;-6.284;2024-03-23T08:40:34;100833.59;;;5.05;100.00
42633;BME280;28261;53.304;-6.284;2024-03-23T08:42:36;100830.88;;;5.08;100.00
42633;BME280;28261;53.304;-6.284;2024-03-23T08:44:38;100831.50;;;5.14;100.00
42633;BME280;28261;53.304;-6.284;2024-03-23T08:46:40;100823.50;;;5.17;100.00
42633;BME280;28261;53.304;-6.284;2024-03-23T08:48:43;100824.44;;;5.16;100.00
42633;BME280;28261;53.304;-6.284;2024-03-23T08:50:46;100823.63;;;5.14;100.00
42633;BME280;28261;53.304;-6.284;2024-03-23T08:52:50;100823.03;;;5.07;100.00
42633;BME280;28261;53.304;-6.284;2024-03-23T08:54:52;100820.59;;;5.02;100.00
42633;BME280;28261;53.304;-6.284;2024-03-23T08:56:56;100818.03;;;5.01;100.00
42633;BME280;28261;53.304;-6.284;2024-03-23T08:58:57;100810.22;;;4.99;100.00
42633;BME280;28261;53.304;-6.284;2024-03-23T09:01:04;100807.22;;;5.08;100.00
42633;BME280;28261;53.304;-6.284;2024-03-23T09:03:06;100818.13;;;5.20;100.00
42633;BME280;28261;53.304;-6.284;2024-03-23T09:05:08;100805.34;;;5.31;100.00
42633;BME280;28261;53.304;-6.284;2024-03-23T09:07:10;100814.81;;;5.35;100.00
42633;BME280;28261;53.304;-6.284;2024-03-23T09:09:12;100806.09;;;5.35;100.00
42633;BME280;28261;53.304;-6.284;2024-03-23T09:11:14;100799.94;;;5.34;100.00
42633;BME280;28261;53.304;-6.284;2024-03-23T09:13:18;100810.47;;;5.34;100.00
42633;BME280;28261;53.304;-6.284;2024-03-23T09:15:20;100806.94;;;5.35;100.00
42633;BME280;28261;53.304;-6.284;2024-03-23T09:17:22;100812.00;;;5.40;100.00
42633;BME280;28261;53.304;-6.284;2024-03-23T09:19:27;100799.78;;;5.39;100.00
42633;BME280;28261;53.304;-6.284;2024-03-23T09:21:29;100797.84;;;5.42;100.00
42633;BME280;28261;53.304;-6.284;2024-03-23T09:23:31;100794.16;;;5.47;100.00
42633;BME280;28261;53.304;-6.284;2024-03-23T09:25:36;100797.09;;;5.59;100.00
42633;BME280;28261;53.304;-6.284;2024-03-23T09:27:38;100795.75;;;5.70;100.00
42633;BME280;28261;53.304;-6.284;2024-03-23T09:29:42;100789.66;;;5.88;100.00
42633;BME280;28261;53.304;-6.284;2024-03-23T09:31:43;100789.69;;;6.07;99.99
42633;BME280;28261;53.304;-6.284;2024-03-23T09:33:46;100791.81;;;6.18;97.95
42633;BME280;28261;53.304;-6.284;2024-03-23T09:35:47;100785.75;;;6.16;96.96
42633;BME280;28261;53.304;-6.284;2024-03-23T09:37:50;100789.56;;;6.28;97.19
42633;BME280;28261;53.304;-6.284;2024-03-23T09:39:51;100790.31;;;6.49;96.57
42633;BME280;28261;53.304;-6.284;2024-03-23T09:41:56;100793.19;;;6.62;95.38
42633;BME280;28261;53.304;-6.284;2024-03-23T09:43:58;100786.69;;;6.69;93.72
42633;BME280;28261;53.304;-6.284;2024-03-23T09:46:02;100787.63;;;6.68;91.90
42633;BME280;28261;53.304;-6.284;2024-03-23T09:48:06;100804.66;;;6.61;90.62
42633;BME280;28261;53.304;-6.284;2024-03-23T09:50:09;100791.34;;;6.47;90.22
42633;BME280;28261;53.304;-6.284;2024-03-23T09:52:12;100790.41;;;6.29;90.79
42633;BME280;28261;53.304;-6.284;2024-03-23T09:54:13;100790.94;;;6.18;91.93
42633;BME280;28261;53.304;-6.284;2024-03-23T09:56:16;100793.22;;;6.06;93.18
42633;BME280;28261;53.304;-6.284;2024-03-23T09:58:18;100786.22;;;5.86;94.49
42633;BME280;28261;53.304;-6.284;2024-03-23T10:00:21;100795.06;;;5.66;95.80
42633;BME280;28261;53.304;-6.284;2024-03-23T10:02:25;100799.63;;;5.42;97.41
42633;BME280;28261;53.304;-6.284;2024-03-23T10:04:38;100800.75;;;5.36;100.00
42633;BME280;28261;53.304;-6.284;2024-03-23T10:06:39;100791.34;;;5.51;100.00
42633;BME280;28261;53.304;-6.284;2024-03-23T10:08:42;100781.97;;;5.84;100.00
42633;BME280;28261;53.304;-6.284;2024-03-23T10:10:45;100794.50;;;6.17;100.00
42633;BME280;28261;53.304;-6.284;2024-03-23T10:12:48;100801.50;;;6.35;98.10
42633;BME280;28261;53.304;-6.284;2024-03-23T10:14:51;100796.13;;;6.38;97.26
42633;BME280;28261;53.304;-6.284;2024-03-23T10:16:54;100789.63;;;6.46;97.79
42633;BME280;28261;53.304;-6.284;2024-03-23T10:19:14;100799.78;;;6.71;97.64
42633;BME280;28261;53.304;-6.284;2024-03-23T10:21:32;100788.53;;;6.85;95.89
42633;BME280;28261;53.304;-6.284;2024-03-23T10:23:33;100781.81;;;6.79;95.08
42633;BME280;28261;53.304;-6.284;2024-03-23T10:25:36;100782.59;;;6.81;95.33
42633;BME280;28261;53.304;-6.284;2024-03-23T10:27:38;100761.06;;;6.90;95.07
42633;BME280;28261;53.304;-6.284;2024-03-23T10:29:41;100774.44;;;7.03;95.34
42633;BME280;28261;53.304;-6.284;2024-03-23T10:31:42;100770.88;;;7.22;93.52
42633;BME280;28261;53.304;-6.284;2024-03-23T10:33:45;100774.72;;;7.32;92.47
42633;BME280;28261;53.304;-6.284;2024-03-23T10:35:49;100766.31;;;7.41;90.41
42633;BME280;28261;53.304;-6.284;2024-03-23T10:37:51;100768.69;;;7.46;89.10
42633;BME280;28261;53.304;-6.284;2024-03-23T10:39:55;100777.31;;;7.50;87.05
42633;BME280;28261;53.304;-6.284;2024-03-23T10:41:57;100774.06;;;7.44;85.51
42633;BME280;28261;53.304;-6.284;2024-03-23T10:44:01;100775.44;;;7.52;85.75
42633;BME280;28261;53.304;-6.284;2024-03-23T10:46:03;100770.63;;;7.60;83.65
42633;BME280;28261;53.304;-6.284;2024-03-23T10:48:07;100777.13;;;7.53;82.69
42633;BME280;28261;53.304;-6.284;2024-03-23T10:50:09;100777.78;;;7.40;81.93
42633;BME280;28261;53.304;-6.284;2024-03-23T10:52:13;100774.06;;;7.44;81.98
42633;BME280;28261;53.304;-6.284;2024-03-23T10:54:15;100790.94;;;7.58;79.82
42633;BME280;28261;53.304;-6.284;2024-03-23T10:56:18;100782.94;;;7.59;78.17
42633;BME280;28261;53.304;-6.284;2024-03-23T10:58:24;100781.44;;;7.71;77.15
42633;BME280;28261;53.304;-6.284;2024-03-23T11:00:28;100776.00;;;7.74;76.41
42633;BME280;28261;53.304;-6.284;2024-03-23T11:02:30;100770.53;;;7.77;75.18
42633;BME280;28261;53.304;-6.284;2024-03-23T11:04:34;100773.59;;;7.86;76.60
42633;BME280;28261;53.304;-6.284;2024-03-23T11:06:38;100767.31;;;7.88;75.83
42633;BME280;28261;53.304;-6.284;2024-03-23T11:08:42;100776.00;;;7.90;73.06
42633;BME280;28261;53.304;-6.284;2024-03-23T11:10:44;100771.75;;;7.88;73.55
42633;BME280;28261;53.304;-6.284;2024-03-23T11:12:46;100759.81;;;7.96;72.59
42633;BME280;28261;53.304;-6.284;2024-03-23T11:14:48;100762.53;;;7.95;71.96
42633;BME280;28261;53.304;-6.284;2024-03-23T11:17:08;100765.09;;;7.96;72.55
42633;BME280;28261;53.304;-6.284;2024-03-23T11:19:35;100772.00;;;7.99;72.70
42633;BME280;28261;53.304;-6.284;2024-03-23T11:21:53;100768.44;;;8.00;71.75
42633;BME280;28261;53.304;-6.284;2024-03-23T11:24:13;100775.00;;;7.93;72.21
42633;BME280;28261;53.304;-6.284;2024-03-23T11:26:15;100769.44;;;7.97;73.39
42633;BME280;28261;53.304;-6.284;2024-03-23T11:28:17;100766.13;;;8.10;73.88